DLH404 EDDF-KJFK
Flight info
| Callsign | DLH404 |
|---|---|
| Flight time | N/A |
| Altitude | 38000 |
| Route | OBOKA2E/07C OBOKA Z29 TORNU DCT BREDA DCT GALSO Q63 KOPUL Q60 OKSAW DCT FELCA DCT OFSOX DCT SLANY DCT TOBOR/M080F380 DCT 5230N02000W 5230N03000W 5130N04000W 4930N05000W DCT IBERG/N0461F380 N364A TUSKY DCT PLYMM PARCH3 |
| Aircraft | A333/H-SDE3GHIJ2J3J5M1RVWXY/LB2D1 |
Departure
| Time | N/A |
|---|---|
| Airport | Frankfurt Main Airport (EDDF) |
Arrival
| Time | 2026-05-08 20:41 |
|---|---|
| Airport | John F. Kennedy International Airport (KJFK) |
| Time | Latitude | Longitude | Altitude | Speed | Heading |
|---|---|---|---|---|---|
| 2026-05-08 15:08 | 52.50736 | -19.62799 | 38227 ft | 451 kts | 270° |
| 2026-05-08 15:08 | 52.50629 | -19.67952 | 38230 ft | 451 kts | 267° |
| 2026-05-08 15:08 | 52.50348 | -19.78251 | 38232 ft | 452 kts | 267° |
| 2026-05-08 15:09 | 52.50092 | -19.88496 | 38237 ft | 452 kts | 267° |
| 2026-05-08 15:09 | 52.49902 | -19.98832 | 38228 ft | 454 kts | 272° |
| 2026-05-08 15:10 | 52.50216 | -20.09172 | 38234 ft | 453 kts | 274° |
| 2026-05-08 15:10 | 52.50633 | -20.19480 | 38250 ft | 453 kts | 275° |
| 2026-05-08 15:11 | 52.51061 | -20.29805 | 38244 ft | 453 kts | 274° |
| 2026-05-08 15:11 | 52.51476 | -20.40128 | 38244 ft | 454 kts | 274° |
| 2026-05-08 15:12 | 52.51874 | -20.50434 | 38249 ft | 455 kts | 276° |
| 2026-05-08 15:12 | 52.52262 | -20.60805 | 38249 ft | 455 kts | 274° |
| 2026-05-08 15:13 | 52.52642 | -20.71180 | 38254 ft | 455 kts | 275° |
| 2026-05-08 15:13 | 52.53011 | -20.81569 | 38258 ft | 455 kts | 275° |
| 2026-05-08 15:14 | 52.53374 | -20.91951 | 38255 ft | 456 kts | 276° |
| 2026-05-08 15:14 | 52.53727 | -21.02359 | 38259 ft | 455 kts | 276° |
| 2026-05-08 15:15 | 52.54071 | -21.12739 | 38260 ft | 455 kts | 274° |
| 2026-05-08 15:15 | 52.54406 | -21.23134 | 38268 ft | 456 kts | 275° |
| 2026-05-08 15:16 | 52.54730 | -21.33462 | 38265 ft | 455 kts | 274° |
| 2026-05-08 15:16 | 52.55047 | -21.43876 | 38265 ft | 456 kts | 275° |
| 2026-05-08 15:17 | 52.55357 | -21.54315 | 38270 ft | 457 kts | 274° |
| 2026-05-08 15:17 | 52.55659 | -21.64758 | 38276 ft | 458 kts | 274° |
| 2026-05-08 15:18 | 52.55950 | -21.75220 | 38277 ft | 458 kts | 274° |
| 2026-05-08 15:18 | 52.56232 | -21.85676 | 38276 ft | 458 kts | 274° |
| 2026-05-08 15:19 | 52.56504 | -21.96148 | 38280 ft | 458 kts | 275° |
| 2026-05-08 15:19 | 52.56768 | -22.06617 | 38280 ft | 459 kts | 274° |
| 2026-05-08 15:20 | 52.57024 | -22.17105 | 38286 ft | 460 kts | 274° |
| 2026-05-08 15:20 | 52.57269 | -22.27611 | 38287 ft | 460 kts | 275° |
| 2026-05-08 15:21 | 52.57504 | -22.38044 | 38291 ft | 460 kts | 274° |
| 2026-05-08 15:21 | 52.57731 | -22.48575 | 38291 ft | 460 kts | 274° |
| 2026-05-08 15:22 | 52.57949 | -22.59079 | 38291 ft | 460 kts | 275° |
| 2026-05-08 15:22 | 52.58158 | -22.69604 | 38300 ft | 461 kts | 274° |
| 2026-05-08 15:23 | 52.58358 | -22.80125 | 38308 ft | 461 kts | 274° |
| 2026-05-08 15:23 | 52.58548 | -22.90658 | 38302 ft | 461 kts | 274° |
| 2026-05-08 15:24 | 52.58729 | -23.01200 | 38305 ft | 461 kts | 274° |
| 2026-05-08 15:24 | 52.58901 | -23.11741 | 38305 ft | 461 kts | 274° |
| 2026-05-08 15:25 | 52.59064 | -23.22276 | 38315 ft | 461 kts | 274° |
| 2026-05-08 15:25 | 52.59217 | -23.32820 | 38315 ft | 461 kts | 274° |
| 2026-05-08 15:26 | 52.59361 | -23.43304 | 38316 ft | 461 kts | 274° |
| 2026-05-08 15:26 | 52.59495 | -23.53841 | 38323 ft | 461 kts | 274° |
| 2026-05-08 15:27 | 52.59621 | -23.64400 | 38311 ft | 461 kts | 274° |
| 2026-05-08 15:27 | 52.59735 | -23.74944 | 38316 ft | 461 kts | 275° |
| 2026-05-08 15:28 | 52.59842 | -23.85512 | 38330 ft | 461 kts | 275° |
| 2026-05-08 15:28 | 52.59940 | -23.96085 | 38329 ft | 462 kts | 275° |
| 2026-05-08 15:29 | 52.60027 | -24.06583 | 38332 ft | 462 kts | 274° |
| 2026-05-08 15:29 | 52.60105 | -24.17156 | 38341 ft | 462 kts | 274° |
| 2026-05-08 15:30 | 52.60173 | -24.27726 | 38336 ft | 462 kts | 275° |
| 2026-05-08 15:30 | 52.60233 | -24.38294 | 38339 ft | 461 kts | 275° |
| 2026-05-08 15:31 | 52.60283 | -24.48867 | 38347 ft | 462 kts | 275° |
| 2026-05-08 15:31 | 52.60324 | -24.59365 | 38347 ft | 462 kts | 275° |
| 2026-05-08 15:32 | 52.60356 | -24.69932 | 38351 ft | 462 kts | 274° |
| 2026-05-08 15:32 | 52.60377 | -24.80494 | 38357 ft | 461 kts | 275° |
| 2026-05-08 15:33 | 52.60389 | -24.91050 | 38349 ft | 461 kts | 275° |
| 2026-05-08 15:33 | 52.60392 | -25.01577 | 38363 ft | 460 kts | 275° |
| 2026-05-08 15:34 | 52.60387 | -25.12103 | 38365 ft | 460 kts | 275° |
| 2026-05-08 15:34 | 52.60373 | -25.22553 | 38368 ft | 460 kts | 275° |
| 2026-05-08 15:35 | 52.60348 | -25.33090 | 38354 ft | 460 kts | 275° |
| 2026-05-08 15:35 | 52.60314 | -25.43615 | 38376 ft | 461 kts | 275° |
| 2026-05-08 15:36 | 52.60278 | -25.52377 | 38374 ft | 461 kts | 275° |
| 2026-05-08 15:36 | 52.60217 | -25.64704 | 38378 ft | 461 kts | 275° |
| 2026-05-08 15:37 | 52.60155 | -25.75264 | 38379 ft | 461 kts | 275° |
| 2026-05-08 15:37 | 52.60083 | -25.85812 | 38367 ft | 461 kts | 275° |
| 2026-05-08 15:38 | 52.60003 | -25.96369 | 38387 ft | 462 kts | 275° |
| 2026-05-08 15:38 | 52.59913 | -26.06936 | 38387 ft | 462 kts | 275° |
| 2026-05-08 15:39 | 52.59812 | -26.17496 | 38388 ft | 461 kts | 275° |
| 2026-05-08 15:39 | 52.59702 | -26.28035 | 38391 ft | 460 kts | 275° |
| 2026-05-08 15:40 | 52.59585 | -26.38505 | 38402 ft | 460 kts | 275° |
| 2026-05-08 15:40 | 52.59458 | -26.49026 | 38399 ft | 460 kts | 274° |
| 2026-05-08 15:41 | 52.59321 | -26.59563 | 38395 ft | 460 kts | 274° |
| 2026-05-08 15:41 | 52.59175 | -26.70096 | 38401 ft | 461 kts | 274° |
| 2026-05-08 15:42 | 52.59019 | -26.80621 | 38412 ft | 461 kts | 274° |
| 2026-05-08 15:42 | 52.58854 | -26.91155 | 38405 ft | 461 kts | 274° |
| 2026-05-08 15:43 | 52.58679 | -27.01676 | 38407 ft | 459 kts | 274° |
| 2026-05-08 15:43 | 52.58495 | -27.12077 | 38412 ft | 456 kts | 274° |
| 2026-05-08 15:44 | 52.58305 | -27.22504 | 38415 ft | 456 kts | 274° |
| 2026-05-08 15:44 | 52.58107 | -27.32931 | 38422 ft | 455 kts | 274° |
| 2026-05-08 15:45 | 52.57932 | -27.41562 | 38424 ft | 453 kts | 274° |
| 2026-05-08 15:45 | 52.57717 | -27.51918 | 38401 ft | 452 kts | 274° |
| 2026-05-08 15:46 | 52.57494 | -27.62228 | 38425 ft | 451 kts | 274° |
| 2026-05-08 15:46 | 52.57263 | -27.72527 | 38430 ft | 451 kts | 274° |
| 2026-05-08 15:47 | 52.57022 | -27.82832 | 38428 ft | 451 kts | 274° |
| 2026-05-08 15:47 | 52.56773 | -27.93133 | 38433 ft | 451 kts | 274° |
| 2026-05-08 15:48 | 52.56381 | -28.08585 | 38428 ft | 451 kts | 273° |
| 2026-05-08 15:49 | 52.56107 | -28.18886 | 38439 ft | 450 kts | 273° |
| 2026-05-08 15:49 | 52.55826 | -28.29159 | 38449 ft | 450 kts | 273° |
| 2026-05-08 15:50 | 52.55537 | -28.39432 | 38451 ft | 450 kts | 273° |
| 2026-05-08 15:50 | 52.55239 | -28.49709 | 38454 ft | 450 kts | 273° |
| 2026-05-08 15:51 | 52.54931 | -28.59991 | 38451 ft | 450 kts | 273° |
| 2026-05-08 15:51 | 52.54614 | -28.70260 | 38456 ft | 450 kts | 273° |
| 2026-05-08 15:52 | 52.54289 | -28.80525 | 38461 ft | 450 kts | 273° |
| 2026-05-08 15:52 | 52.53956 | -28.90768 | 38472 ft | 450 kts | 272° |
| 2026-05-08 15:53 | 52.53613 | -29.01043 | 38462 ft | 450 kts | 272° |
| 2026-05-08 15:53 | 52.53263 | -29.11250 | 38466 ft | 450 kts | 272° |
| 2026-05-08 15:54 | 52.52902 | -29.21508 | 38466 ft | 450 kts | 272° |
| 2026-05-08 15:54 | 52.52532 | -29.31764 | 38468 ft | 450 kts | 272° |
| 2026-05-08 15:55 | 52.52154 | -29.42022 | 38465 ft | 450 kts | 272° |
| 2026-05-08 15:55 | 52.51570 | -29.57412 | 38465 ft | 450 kts | 272° |
| 2026-05-08 15:56 | 52.51181 | -29.67377 | 38473 ft | 450 kts | 272° |
| 2026-05-08 15:56 | 52.50771 | -29.77629 | 38473 ft | 449 kts | 272° |
| 2026-05-08 15:57 | 52.50353 | -29.87859 | 38476 ft | 449 kts | 272° |
| 2026-05-08 15:57 | 52.49928 | -29.98082 | 38476 ft | 449 kts | 272° |
| 2026-05-08 15:58 | 52.49412 | -30.08310 | 38476 ft | 450 kts | 270° |
| 2026-05-08 15:58 | 52.48814 | -30.18548 | 38478 ft | 451 kts | 270° |
| 2026-05-08 15:59 | 52.48203 | -30.28780 | 38476 ft | 450 kts | 270° |
| 2026-05-08 15:59 | 52.47594 | -30.38995 | 38480 ft | 449 kts | 270° |
| 2026-05-08 16:00 | 52.46985 | -30.49180 | 38485 ft | 449 kts | 270° |
| 2026-05-08 16:00 | 52.46367 | -30.59381 | 38485 ft | 449 kts | 270° |
| 2026-05-08 16:01 | 52.45744 | -30.69514 | 38489 ft | 449 kts | 270° |
| 2026-05-08 16:01 | 52.45108 | -30.79699 | 38461 ft | 449 kts | 270° |
| 2026-05-08 16:02 | 52.44470 | -30.89760 | 38489 ft | 448 kts | 270° |
| 2026-05-08 16:02 | 52.43817 | -30.99927 | 38483 ft | 448 kts | 270° |
| 2026-05-08 16:03 | 52.43156 | -31.10086 | 38494 ft | 448 kts | 270° |
| 2026-05-08 16:03 | 52.42488 | -31.20236 | 38501 ft | 448 kts | 270° |
| 2026-05-08 16:04 | 52.41811 | -31.30371 | 38500 ft | 448 kts | 270° |
| 2026-05-08 16:04 | 52.41127 | -31.40454 | 38486 ft | 447 kts | 270° |
| 2026-05-08 16:05 | 52.40433 | -31.50568 | 38490 ft | 446 kts | 270° |
| 2026-05-08 16:05 | 52.39732 | -31.60671 | 38492 ft | 446 kts | 270° |
| 2026-05-08 16:06 | 52.39022 | -31.70777 | 38492 ft | 447 kts | 270° |
| 2026-05-08 16:06 | 52.38303 | -31.80886 | 38492 ft | 447 kts | 270° |
| 2026-05-08 16:07 | 52.37574 | -31.90995 | 38496 ft | 447 kts | 270° |
| 2026-05-08 16:07 | 52.36843 | -32.01027 | 38498 ft | 447 kts | 270° |
| 2026-05-08 16:08 | 52.36097 | -32.11127 | 38482 ft | 447 kts | 270° |
| 2026-05-08 16:08 | 52.35343 | -32.21197 | 38495 ft | 445 kts | 270° |
| 2026-05-08 16:09 | 52.34713 | -32.29532 | 38492 ft | 444 kts | 270° |
| 2026-05-08 16:09 | 52.33821 | -32.41242 | 38477 ft | 444 kts | 270° |
| 2026-05-08 16:10 | 52.33047 | -32.51244 | 38496 ft | 442 kts | 270° |
| 2026-05-08 16:10 | 52.32272 | -32.61140 | 38502 ft | 440 kts | 270° |
| 2026-05-08 16:11 | 52.31490 | -32.71049 | 38496 ft | 439 kts | 270° |
| 2026-05-08 16:11 | 52.30702 | -32.80945 | 38494 ft | 439 kts | 270° |
| 2026-05-08 16:12 | 52.29904 | -32.90834 | 38493 ft | 439 kts | 270° |
| 2026-05-08 16:12 | 52.29097 | -33.00708 | 38496 ft | 438 kts | 270° |
| 2026-05-08 16:13 | 52.28283 | -33.10580 | 38490 ft | 438 kts | 270° |
| 2026-05-08 16:13 | 52.27463 | -33.20428 | 38491 ft | 438 kts | 270° |
| 2026-05-08 16:14 | 52.26638 | -33.30223 | 38485 ft | 438 kts | 270° |
| 2026-05-08 16:14 | 52.25800 | -33.40059 | 38488 ft | 436 kts | 270° |
| 2026-05-08 16:15 | 52.24956 | -33.49849 | 38485 ft | 434 kts | 270° |
| 2026-05-08 16:15 | 52.24110 | -33.59591 | 38490 ft | 433 kts | 270° |
| 2026-05-08 16:16 | 52.23259 | -33.69322 | 38481 ft | 433 kts | 270° |
| 2026-05-08 16:16 | 52.22400 | -33.79052 | 38481 ft | 433 kts | 270° |
| 2026-05-08 16:17 | 52.21678 | -33.87148 | 38481 ft | 433 kts | 270° |
| 2026-05-08 16:17 | 52.20659 | -33.98446 | 38456 ft | 433 kts | 270° |
| 2026-05-08 16:18 | 52.19774 | -34.08162 | 38481 ft | 433 kts | 270° |
| 2026-05-08 16:18 | 52.18880 | -34.17881 | 38482 ft | 433 kts | 270° |
| 2026-05-08 16:19 | 52.17979 | -34.27591 | 38482 ft | 434 kts | 270° |
| 2026-05-08 16:19 | 52.17069 | -34.37312 | 38483 ft | 434 kts | 270° |
| 2026-05-08 16:20 | 52.16151 | -34.47029 | 38485 ft | 434 kts | 270° |
| 2026-05-08 16:20 | 52.15223 | -34.56749 | 38466 ft | 434 kts | 271° |
| 2026-05-08 16:21 | 52.14288 | -34.66468 | 38482 ft | 434 kts | 271° |
| 2026-05-08 16:21 | 52.13347 | -34.76159 | 38474 ft | 434 kts | 271° |
| 2026-05-08 16:22 | 52.12401 | -34.85813 | 38474 ft | 434 kts | 271° |
| 2026-05-08 16:22 | 52.11444 | -34.95511 | 38475 ft | 434 kts | 271° |
| 2026-05-08 16:23 | 52.10476 | -35.05215 | 38468 ft | 435 kts | 271° |
| 2026-05-08 16:23 | 52.09499 | -35.14965 | 38478 ft | 438 kts | 271° |
| 2026-05-08 16:24 | 52.08506 | -35.24759 | 38478 ft | 438 kts | 271° |
| 2026-05-08 16:24 | 52.07504 | -35.34529 | 38479 ft | 438 kts | 270° |
| 2026-05-08 16:25 | 52.06493 | -35.44314 | 38476 ft | 439 kts | 270° |
| 2026-05-08 16:25 | 52.05483 | -35.54024 | 38476 ft | 439 kts | 270° |
| 2026-05-08 16:26 | 52.04457 | -35.63821 | 38473 ft | 441 kts | 270° |
| 2026-05-08 16:26 | 52.03417 | -35.73661 | 38473 ft | 442 kts | 270° |
| 2026-05-08 16:27 | 52.02368 | -35.83494 | 38468 ft | 442 kts | 270° |
| 2026-05-08 16:27 | 52.01315 | -35.93272 | 38468 ft | 442 kts | 270° |
| 2026-05-08 16:28 | 52.00248 | -36.03108 | 38465 ft | 442 kts | 270° |
| 2026-05-08 16:28 | 51.99173 | -36.12941 | 38470 ft | 442 kts | 270° |
| 2026-05-08 16:29 | 51.98090 | -36.22772 | 38459 ft | 442 kts | 270° |
| 2026-05-08 16:29 | 51.96998 | -36.32598 | 38456 ft | 443 kts | 270° |
| 2026-05-08 16:30 | 51.95897 | -36.42429 | 38458 ft | 443 kts | 269° |
| 2026-05-08 16:30 | 51.94789 | -36.52246 | 38459 ft | 443 kts | 269° |
| 2026-05-08 16:31 | 51.93680 | -36.61997 | 38444 ft | 442 kts | 269° |
| 2026-05-08 16:31 | 51.92558 | -36.71757 | 38453 ft | 439 kts | 269° |
| 2026-05-08 16:32 | 51.91437 | -36.81453 | 38448 ft | 438 kts | 269° |
| 2026-05-08 16:32 | 51.90308 | -36.91170 | 38455 ft | 439 kts | 269° |
| 2026-05-08 16:33 | 51.89172 | -37.00861 | 38440 ft | 438 kts | 269° |
| 2026-05-08 16:33 | 51.88221 | -37.08905 | 38445 ft | 437 kts | 269° |
| 2026-05-08 16:34 | 51.87072 | -37.18574 | 38445 ft | 437 kts | 269° |
| 2026-05-08 16:34 | 51.85916 | -37.28233 | 38442 ft | 437 kts | 269° |
| 2026-05-08 16:35 | 51.84751 | -37.37893 | 38441 ft | 437 kts | 268° |
| 2026-05-08 16:35 | 51.83578 | -37.47546 | 38432 ft | 438 kts | 268° |
| 2026-05-08 16:36 | 51.82396 | -37.57203 | 38436 ft | 438 kts | 268° |
| 2026-05-08 16:36 | 51.81214 | -37.66794 | 38425 ft | 439 kts | 268° |
| 2026-05-08 16:37 | 51.80013 | -37.76480 | 38427 ft | 440 kts | 268° |
| 2026-05-08 16:37 | 51.78802 | -37.86156 | 38425 ft | 440 kts | 267° |
| 2026-05-08 16:38 | 51.77580 | -37.95849 | 38419 ft | 440 kts | 267° |
| 2026-05-08 16:38 | 51.76350 | -38.05540 | 38414 ft | 440 kts | 267° |
| 2026-05-08 16:39 | 51.75114 | -38.15219 | 38390 ft | 440 kts | 266° |
| 2026-05-08 16:39 | 51.73871 | -38.24867 | 38410 ft | 438 kts | 266° |
| 2026-05-08 16:40 | 51.72626 | -38.34475 | 38409 ft | 438 kts | 266° |
| 2026-05-08 16:40 | 51.71375 | -38.44077 | 38401 ft | 438 kts | 266° |
| 2026-05-08 16:41 | 51.70114 | -38.53693 | 38400 ft | 438 kts | 266° |
| 2026-05-08 16:42 | 51.68214 | -38.68039 | 38387 ft | 438 kts | 265° |
| 2026-05-08 16:42 | 51.66931 | -38.77653 | 38395 ft | 439 kts | 265° |
| 2026-05-08 16:43 | 51.65638 | -38.87271 | 38385 ft | 439 kts | 265° |
| 2026-05-08 16:43 | 51.64338 | -38.96881 | 38383 ft | 439 kts | 265° |
| 2026-05-08 16:44 | 51.63031 | -39.06478 | 38383 ft | 439 kts | 265° |
| 2026-05-08 16:44 | 51.61714 | -39.16079 | 38356 ft | 439 kts | 265° |
| 2026-05-08 16:45 | 51.60396 | -39.25635 | 38373 ft | 441 kts | 264° |
| 2026-05-08 16:45 | 51.59061 | -39.35251 | 38374 ft | 441 kts | 264° |
| 2026-05-08 16:46 | 51.57717 | -39.44865 | 38359 ft | 440 kts | 264° |
| 2026-05-08 16:46 | 51.56364 | -39.54478 | 38368 ft | 441 kts | 264° |
| 2026-05-08 16:47 | 51.55003 | -39.64092 | 38372 ft | 441 kts | 264° |
| 2026-05-08 16:47 | 51.53635 | -39.73699 | 38360 ft | 442 kts | 263° |
| 2026-05-08 16:48 | 51.52264 | -39.83262 | 38358 ft | 442 kts | 263° |
| 2026-05-08 16:48 | 51.50867 | -39.92942 | 38352 ft | 442 kts | 263° |
| 2026-05-08 16:49 | 51.49465 | -40.02556 | 38349 ft | 442 kts | 263° |
| 2026-05-08 16:49 | 51.48031 | -40.12094 | 38348 ft | 443 kts | 263° |
| 2026-05-08 16:50 | 51.46569 | -40.21698 | 38341 ft | 443 kts | 262° |
| 2026-05-08 16:50 | 51.45102 | -40.31287 | 38333 ft | 443 kts | 262° |
| 2026-05-08 16:51 | 51.43627 | -40.40892 | 38333 ft | 443 kts | 262° |
| 2026-05-08 16:51 | 51.42145 | -40.50489 | 38328 ft | 443 kts | 262° |
| 2026-05-08 16:52 | 51.40656 | -40.60077 | 38340 ft | 443 kts | 262° |
| 2026-05-08 16:52 | 51.39158 | -40.69667 | 38331 ft | 443 kts | 261° |
| 2026-05-08 16:53 | 51.36905 | -40.83978 | 38330 ft | 442 kts | 261° |
| 2026-05-08 16:53 | 51.35396 | -40.93506 | 38304 ft | 442 kts | 261° |
| 2026-05-08 16:54 | 51.33876 | -41.03042 | 38303 ft | 442 kts | 261° |
| 2026-05-08 16:54 | 51.32348 | -41.12571 | 38314 ft | 442 kts | 261° |
| 2026-05-08 16:55 | 51.30827 | -41.21992 | 38311 ft | 438 kts | 261° |
| 2026-05-08 16:55 | 51.29301 | -41.31389 | 38304 ft | 436 kts | 261° |
| 2026-05-08 16:56 | 51.27775 | -41.40757 | 38306 ft | 436 kts | 261° |
| 2026-05-08 16:56 | 51.26241 | -41.50122 | 38298 ft | 436 kts | 261° |
| 2026-05-08 16:57 | 51.24700 | -41.59475 | 38298 ft | 436 kts | 261° |
| 2026-05-08 16:57 | 51.23152 | -41.68792 | 38281 ft | 428 kts | 259° |
| 2026-05-08 16:58 | 51.21634 | -41.77861 | 38288 ft | 420 kts | 259° |
| 2026-05-08 16:58 | 51.20128 | -41.86870 | 38287 ft | 420 kts | 259° |
| 2026-05-08 16:59 | 51.18618 | -41.95860 | 38287 ft | 420 kts | 259° |
| 2026-05-08 16:59 | 51.17097 | -42.04852 | 38282 ft | 420 kts | 259° |
| 2026-05-08 17:00 | 51.15600 | -42.13640 | 38279 ft | 420 kts | 258° |
| 2026-05-08 17:00 | 51.14064 | -42.22617 | 38273 ft | 420 kts | 258° |
| 2026-05-08 17:01 | 51.12522 | -42.31592 | 38271 ft | 420 kts | 258° |
| 2026-05-08 17:01 | 51.10973 | -42.40558 | 38270 ft | 420 kts | 258° |
| 2026-05-08 17:02 | 51.09416 | -42.49520 | 38263 ft | 420 kts | 258° |
| 2026-05-08 17:02 | 51.07850 | -42.58492 | 38260 ft | 421 kts | 258° |
| 2026-05-08 17:03 | 51.06279 | -42.67442 | 38246 ft | 420 kts | 258° |
| 2026-05-08 17:03 | 51.04704 | -42.76369 | 38246 ft | 419 kts | 258° |
| 2026-05-08 17:04 | 51.03125 | -42.85278 | 38246 ft | 418 kts | 257° |
| 2026-05-08 17:04 | 51.01557 | -42.94081 | 38246 ft | 417 kts | 257° |
| 2026-05-08 17:05 | 50.99972 | -43.02943 | 38235 ft | 417 kts | 257° |
| 2026-05-08 17:05 | 50.98380 | -43.11797 | 38234 ft | 417 kts | 256° |
| 2026-05-08 17:06 | 50.96780 | -43.20649 | 38226 ft | 418 kts | 256° |
| 2026-05-08 17:06 | 50.95172 | -43.29506 | 38227 ft | 418 kts | 256° |
| 2026-05-08 17:07 | 50.93556 | -43.38358 | 38229 ft | 418 kts | 256° |
| 2026-05-08 17:07 | 50.91933 | -43.47207 | 38231 ft | 418 kts | 256° |
| 2026-05-08 17:08 | 50.90303 | -43.56051 | 38213 ft | 418 kts | 256° |
| 2026-05-08 17:08 | 50.88680 | -43.64818 | 38214 ft | 417 kts | 256° |
| 2026-05-08 17:09 | 50.87042 | -43.73615 | 38211 ft | 416 kts | 255° |
| 2026-05-08 17:09 | 50.85399 | -43.82404 | 38201 ft | 417 kts | 255° |
| 2026-05-08 17:10 | 50.83747 | -43.91203 | 38203 ft | 417 kts | 255° |
| 2026-05-08 17:10 | 50.82085 | -44.00011 | 38188 ft | 422 kts | 255° |
| 2026-05-08 17:11 | 50.80374 | -44.09021 | 38185 ft | 432 kts | 254° |
| 2026-05-08 17:11 | 50.78609 | -44.18240 | 38177 ft | 442 kts | 254° |
| 2026-05-08 17:12 | 50.76812 | -44.27586 | 38178 ft | 445 kts | 254° |
| 2026-05-08 17:12 | 50.75024 | -44.36858 | 38180 ft | 444 kts | 254° |
| 2026-05-08 17:13 | 50.73248 | -44.46038 | 38176 ft | 422 kts | 254° |
| 2026-05-08 17:13 | 50.71571 | -44.54718 | 38173 ft | 408 kts | 253° |
| 2026-05-08 17:14 | 50.69914 | -44.63273 | 38168 ft | 408 kts | 253° |
| 2026-05-08 17:14 | 50.68245 | -44.71821 | 38156 ft | 408 kts | 253° |
| 2026-05-08 17:15 | 50.66564 | -44.80364 | 38159 ft | 408 kts | 253° |
| 2026-05-08 17:15 | 50.64887 | -44.88843 | 38138 ft | 408 kts | 253° |
| 2026-05-08 17:16 | 50.63193 | -44.97372 | 38146 ft | 408 kts | 253° |
| 2026-05-08 17:16 | 50.61496 | -45.05881 | 38156 ft | 407 kts | 252° |
| 2026-05-08 17:17 | 50.59797 | -45.14353 | 38132 ft | 404 kts | 252° |
| 2026-05-08 17:17 | 50.58105 | -45.22768 | 38132 ft | 403 kts | 252° |
| 2026-05-08 17:18 | 50.56403 | -45.31194 | 38116 ft | 403 kts | 252° |
| 2026-05-08 17:18 | 50.54700 | -45.39588 | 38116 ft | 403 kts | 252° |
| 2026-05-08 17:19 | 50.52987 | -45.47995 | 38105 ft | 403 kts | 252° |
| 2026-05-08 17:19 | 50.51272 | -45.56370 | 38113 ft | 403 kts | 252° |
| 2026-05-08 17:20 | 50.49561 | -45.64699 | 38103 ft | 403 kts | 252° |
| 2026-05-08 17:20 | 50.47834 | -45.73067 | 38092 ft | 403 kts | 252° |
| 2026-05-08 17:21 | 50.46395 | -45.80013 | 38089 ft | 403 kts | 252° |
| 2026-05-08 17:21 | 50.44654 | -45.88383 | 38088 ft | 403 kts | 252° |
| 2026-05-08 17:22 | 50.42909 | -45.96738 | 38089 ft | 403 kts | 251° |
| 2026-05-08 17:22 | 50.41159 | -46.05082 | 38070 ft | 403 kts | 251° |
| 2026-05-08 17:23 | 50.39401 | -46.13429 | 38075 ft | 403 kts | 251° |
| 2026-05-08 17:23 | 50.37641 | -46.21753 | 38058 ft | 401 kts | 250° |
| 2026-05-08 17:24 | 50.35893 | -46.29986 | 38059 ft | 400 kts | 250° |
| 2026-05-08 17:24 | 50.34128 | -46.38263 | 38055 ft | 401 kts | 250° |
| 2026-05-08 17:25 | 50.32355 | -46.46550 | 38053 ft | 401 kts | 250° |
| 2026-05-08 17:25 | 50.30575 | -46.54829 | 38053 ft | 402 kts | 250° |
| 2026-05-08 17:26 | 50.28800 | -46.63053 | 38040 ft | 402 kts | 250° |
| 2026-05-08 17:26 | 50.27008 | -46.71325 | 38040 ft | 402 kts | 250° |
| 2026-05-08 17:27 | 50.25209 | -46.79594 | 38034 ft | 402 kts | 250° |
| 2026-05-08 17:27 | 50.23402 | -46.87866 | 38034 ft | 402 kts | 250° |
| 2026-05-08 17:28 | 50.21589 | -46.96136 | 38026 ft | 402 kts | 249° |
| 2026-05-08 17:28 | 50.19768 | -47.04404 | 38020 ft | 402 kts | 249° |
| 2026-05-08 17:29 | 50.17957 | -47.12598 | 38010 ft | 402 kts | 249° |
| 2026-05-08 17:29 | 50.16126 | -47.20848 | 38010 ft | 402 kts | 249° |
| 2026-05-08 17:30 | 50.14290 | -47.29087 | 38004 ft | 401 kts | 248° |
| 2026-05-08 17:30 | 50.12455 | -47.37293 | 38005 ft | 400 kts | 248° |
| 2026-05-08 17:31 | 50.10626 | -47.45439 | 37991 ft | 400 kts | 248° |
| 2026-05-08 17:31 | 50.08780 | -47.53628 | 37985 ft | 400 kts | 248° |
| 2026-05-08 17:32 | 50.06930 | -47.61803 | 37985 ft | 400 kts | 248° |
| 2026-05-08 17:32 | 50.05073 | -47.69975 | 37977 ft | 400 kts | 248° |
| 2026-05-08 17:33 | 50.03222 | -47.78094 | 37979 ft | 400 kts | 248° |
| 2026-05-08 17:33 | 50.01359 | -47.86229 | 37974 ft | 399 kts | 248° |
| 2026-05-08 17:34 | 49.99494 | -47.94347 | 37960 ft | 399 kts | 248° |
| 2026-05-08 17:34 | 49.97621 | -48.02467 | 37955 ft | 399 kts | 248° |
| 2026-05-08 17:35 | 49.95743 | -48.10575 | 37952 ft | 399 kts | 248° |
| 2026-05-08 17:35 | 49.93860 | -48.18677 | 37954 ft | 399 kts | 247° |
| 2026-05-08 17:36 | 49.91967 | -48.26789 | 37947 ft | 399 kts | 247° |
| 2026-05-08 17:36 | 49.90073 | -48.34871 | 37929 ft | 398 kts | 246° |
| 2026-05-08 17:37 | 49.88194 | -48.42866 | 37925 ft | 396 kts | 246° |
| 2026-05-08 17:37 | 49.86303 | -48.50881 | 37925 ft | 396 kts | 246° |
| 2026-05-08 17:38 | 49.84401 | -48.58909 | 37919 ft | 396 kts | 246° |
| 2026-05-08 17:38 | 49.82493 | -48.66938 | 37920 ft | 396 kts | 246° |
| 2026-05-08 17:39 | 49.80580 | -48.74954 | 37903 ft | 397 kts | 246° |
| 2026-05-08 17:39 | 49.78663 | -48.82961 | 37903 ft | 397 kts | 246° |
| 2026-05-08 17:40 | 49.76735 | -48.90981 | 37900 ft | 397 kts | 246° |
| 2026-05-08 17:40 | 49.74804 | -48.98990 | 37900 ft | 397 kts | 246° |
| 2026-05-08 17:41 | 49.72880 | -49.06937 | 37902 ft | 397 kts | 245° |
| 2026-05-08 17:41 | 49.70934 | -49.14947 | 37886 ft | 398 kts | 245° |
| 2026-05-08 17:42 | 49.68982 | -49.22951 | 37887 ft | 398 kts | 245° |
| 2026-05-08 17:42 | 49.67027 | -49.30941 | 37884 ft | 398 kts | 245° |
| 2026-05-08 17:43 | 49.65065 | -49.38925 | 37894 ft | 397 kts | 244° |
| 2026-05-08 17:43 | 49.63106 | -49.46875 | 37873 ft | 397 kts | 244° |
| 2026-05-08 17:44 | 49.61147 | -49.54796 | 37876 ft | 397 kts | 244° |
| 2026-05-08 17:44 | 49.59169 | -49.62762 | 37862 ft | 398 kts | 244° |
| 2026-05-08 17:45 | 49.57181 | -49.70736 | 37881 ft | 398 kts | 244° |
| 2026-05-08 17:45 | 49.55189 | -49.78703 | 37873 ft | 398 kts | 244° |
| 2026-05-08 17:46 | 49.53203 | -49.86618 | 37854 ft | 398 kts | 244° |
| 2026-05-08 17:46 | 49.51204 | -49.94558 | 37871 ft | 398 kts | 244° |
| 2026-05-08 17:47 | 49.49214 | -50.02519 | 37850 ft | 399 kts | 244° |
| 2026-05-08 17:47 | 49.47607 | -50.09184 | 37845 ft | 399 kts | 244° |
| 2026-05-08 17:48 | 49.45382 | -50.18501 | 37851 ft | 399 kts | 244° |
| 2026-05-08 17:48 | 49.43458 | -50.26504 | 37842 ft | 399 kts | 244° |
| 2026-05-08 17:49 | 49.41525 | -50.34493 | 37835 ft | 399 kts | 244° |
| 2026-05-08 17:49 | 49.39588 | -50.42460 | 37824 ft | 397 kts | 243° |
| 2026-05-08 17:50 | 49.37656 | -50.50377 | 37819 ft | 396 kts | 243° |
| 2026-05-08 17:50 | 49.35717 | -50.58290 | 37818 ft | 396 kts | 243° |
| 2026-05-08 17:51 | 49.33772 | -50.66202 | 37813 ft | 396 kts | 242° |
| 2026-05-08 17:51 | 49.31824 | -50.74103 | 37801 ft | 396 kts | 242° |
| 2026-05-08 17:52 | 49.29882 | -50.81946 | 37803 ft | 396 kts | 242° |
| 2026-05-08 17:53 | 49.26946 | -50.93758 | 37792 ft | 395 kts | 242° |
| 2026-05-08 17:53 | 49.24984 | -51.01616 | 37793 ft | 395 kts | 242° |
| 2026-05-08 17:54 | 49.23016 | -51.09468 | 37795 ft | 395 kts | 242° |
| 2026-05-08 17:54 | 49.21042 | -51.17314 | 37775 ft | 395 kts | 242° |
| 2026-05-08 17:55 | 49.19065 | -51.25150 | 37780 ft | 395 kts | 242° |
| 2026-05-08 17:55 | 49.17082 | -51.32982 | 37779 ft | 395 kts | 242° |
| 2026-05-08 17:56 | 49.15105 | -51.40760 | 37774 ft | 395 kts | 241° |
| 2026-05-08 17:56 | 49.13112 | -51.48575 | 37773 ft | 395 kts | 241° |
| 2026-05-08 17:57 | 49.11112 | -51.56394 | 37760 ft | 395 kts | 241° |
| 2026-05-08 17:57 | 49.09107 | -51.64204 | 37758 ft | 395 kts | 241° |
| 2026-05-08 17:58 | 49.07100 | -51.71993 | 37758 ft | 394 kts | 241° |
| 2026-05-08 17:58 | 49.05100 | -51.79738 | 37756 ft | 391 kts | 240° |
| 2026-05-08 17:59 | 49.03101 | -51.87446 | 37748 ft | 391 kts | 240° |
| 2026-05-08 17:59 | 49.01119 | -51.95098 | 37755 ft | 391 kts | 242° |
| 2026-05-08 18:00 | 48.99187 | -52.02850 | 37749 ft | 391 kts | 242° |
| 2026-05-08 18:00 | 48.96178 | -52.14369 | 37744 ft | 389 kts | 242° |
| 2026-05-08 18:01 | 48.94139 | -52.21969 | 37747 ft | 387 kts | 241° |
| 2026-05-08 18:01 | 48.92094 | -52.29544 | 37744 ft | 387 kts | 241° |
| 2026-05-08 18:02 | 48.90394 | -52.35831 | 37729 ft | 387 kts | 241° |
| 2026-05-08 18:02 | 48.87999 | -52.44670 | 37732 ft | 387 kts | 241° |
| 2026-05-08 18:03 | 48.85946 | -52.52225 | 37733 ft | 387 kts | 241° |
| 2026-05-08 18:03 | 48.83890 | -52.59769 | 37727 ft | 386 kts | 240° |
| 2026-05-08 18:04 | 48.81831 | -52.67300 | 37719 ft | 386 kts | 240° |
| 2026-05-08 18:04 | 48.79765 | -52.74827 | 37714 ft | 386 kts | 240° |
| 2026-05-08 18:05 | 48.77722 | -52.82248 | 37713 ft | 386 kts | 240° |
| 2026-05-08 18:05 | 48.75641 | -52.89787 | 37711 ft | 386 kts | 240° |
| 2026-05-08 18:06 | 48.73665 | -52.96918 | 37715 ft | 386 kts | 240° |
| 2026-05-08 18:06 | 48.71586 | -53.04403 | 37691 ft | 385 kts | 240° |
| 2026-05-08 18:07 | 48.69516 | -53.11829 | 37692 ft | 385 kts | 240° |
| 2026-05-08 18:07 | 48.67429 | -53.19296 | 37686 ft | 385 kts | 240° |
| 2026-05-08 18:08 | 48.65337 | -53.26752 | 37683 ft | 384 kts | 240° |
| 2026-05-08 18:08 | 48.63601 | -53.32928 | 37689 ft | 384 kts | 240° |
| 2026-05-08 18:09 | 48.61507 | -53.40351 | 37676 ft | 383 kts | 239° |
| 2026-05-08 18:09 | 48.59410 | -53.47763 | 37673 ft | 383 kts | 239° |
| 2026-05-08 18:10 | 48.56969 | -53.56358 | 37661 ft | 383 kts | 239° |
| 2026-05-08 18:10 | 48.55208 | -53.62544 | 37669 ft | 383 kts | 239° |
| 2026-05-08 18:11 | 48.53113 | -53.69877 | 37659 ft | 383 kts | 239° |
| 2026-05-08 18:11 | 48.51001 | -53.77250 | 37677 ft | 383 kts | 239° |
| 2026-05-08 18:12 | 48.48891 | -53.84600 | 37649 ft | 381 kts | 239° |
| 2026-05-08 18:12 | 48.46782 | -53.91918 | 37665 ft | 380 kts | 239° |
| 2026-05-08 18:13 | 48.44668 | -53.99228 | 37651 ft | 381 kts | 239° |
| 2026-05-08 18:13 | 48.42548 | -54.06539 | 37647 ft | 381 kts | 239° |
| 2026-05-08 18:14 | 48.40425 | -54.13837 | 37654 ft | 380 kts | 239° |
| 2026-05-08 18:14 | 48.38303 | -54.21116 | 37646 ft | 378 kts | 238° |
| 2026-05-08 18:15 | 48.36189 | -54.28343 | 37650 ft | 377 kts | 238° |
| 2026-05-08 18:15 | 48.34088 | -54.35499 | 37648 ft | 377 kts | 238° |
| 2026-05-08 18:16 | 48.31967 | -54.42705 | 37647 ft | 377 kts | 238° |
| 2026-05-08 18:16 | 48.29847 | -54.49888 | 37648 ft | 376 kts | 238° |
| 2026-05-08 18:17 | 48.27720 | -54.57071 | 37642 ft | 377 kts | 238° |
| 2026-05-08 18:17 | 48.25583 | -54.64270 | 37642 ft | 377 kts | 237° |
| 2026-05-08 18:18 | 48.23440 | -54.71465 | 37644 ft | 377 kts | 237° |
| 2026-05-08 18:18 | 48.21294 | -54.78652 | 37645 ft | 377 kts | 237° |
| 2026-05-08 18:19 | 48.19155 | -54.85791 | 37634 ft | 377 kts | 237° |
| 2026-05-08 18:19 | 48.16999 | -54.92971 | 37612 ft | 377 kts | 237° |
| 2026-05-08 18:20 | 48.14837 | -55.00144 | 37612 ft | 377 kts | 237° |
| 2026-05-08 18:20 | 48.12671 | -55.07314 | 37636 ft | 377 kts | 236° |
| 2026-05-08 18:21 | 48.10516 | -55.14436 | 37603 ft | 374 kts | 236° |
| 2026-05-08 18:21 | 48.08382 | -55.21460 | 37605 ft | 373 kts | 236° |
| 2026-05-08 18:22 | 48.06226 | -55.28529 | 37587 ft | 373 kts | 236° |
| 2026-05-08 18:22 | 48.04070 | -55.35578 | 37581 ft | 373 kts | 236° |
| 2026-05-08 18:23 | 48.01903 | -55.42642 | 37581 ft | 378 kts | 236° |
| 2026-05-08 18:23 | 47.99663 | -55.49891 | 37571 ft | 390 kts | 236° |
| 2026-05-08 18:24 | 47.97357 | -55.57349 | 37570 ft | 402 kts | 236° |
| 2026-05-08 18:24 | 47.94986 | -55.65021 | 37564 ft | 411 kts | 236° |
| 2026-05-08 18:25 | 47.92599 | -55.72750 | 37568 ft | 410 kts | 236° |
| 2026-05-08 18:25 | 47.90223 | -55.80414 | 37563 ft | 409 kts | 236° |
| 2026-05-08 18:26 | 47.87829 | -55.88091 | 37556 ft | 408 kts | 236° |
| 2026-05-08 18:26 | 47.85427 | -55.95759 | 37624 ft | 408 kts | 236° |
| 2026-05-08 18:27 | 47.83419 | -56.02163 | 37557 ft | 406 kts | 236° |
| 2026-05-08 18:27 | 47.80641 | -56.10991 | 37547 ft | 404 kts | 236° |
| 2026-05-08 18:28 | 47.78246 | -56.18565 | 37547 ft | 404 kts | 235° |
| 2026-05-08 18:28 | 47.75849 | -56.26129 | 37551 ft | 404 kts | 235° |
| 2026-05-08 18:29 | 47.73453 | -56.33665 | 37581 ft | 403 kts | 235° |
| 2026-05-08 18:29 | 47.71066 | -56.41153 | 37568 ft | 404 kts | 235° |
| 2026-05-08 18:30 | 47.68658 | -56.48685 | 37585 ft | 404 kts | 235° |
| 2026-05-08 18:30 | 47.66244 | -56.56214 | 37590 ft | 404 kts | 234° |
| 2026-05-08 18:31 | 47.63826 | -56.63733 | 37569 ft | 404 kts | 234° |
| 2026-05-08 18:31 | 47.61391 | -56.71270 | 37583 ft | 405 kts | 234° |
| 2026-05-08 18:32 | 47.58960 | -56.78793 | 37587 ft | 404 kts | 234° |
| 2026-05-08 18:32 | 47.56530 | -56.86288 | 37620 ft | 404 kts | 234° |
| 2026-05-08 18:33 | 47.54099 | -56.93758 | 37613 ft | 405 kts | 234° |
| 2026-05-08 18:33 | 47.51642 | -57.01282 | 37612 ft | 407 kts | 234° |
| 2026-05-08 18:34 | 47.49174 | -57.08822 | 37611 ft | 407 kts | 234° |
| 2026-05-08 18:34 | 47.46701 | -57.16357 | 37609 ft | 407 kts | 234° |
| 2026-05-08 18:35 | 47.44229 | -57.23868 | 37611 ft | 407 kts | 234° |
| 2026-05-08 18:35 | 47.41763 | -57.31334 | 37631 ft | 407 kts | 233° |
| 2026-05-08 18:36 | 47.39272 | -57.38853 | 37613 ft | 408 kts | 233° |
| 2026-05-08 18:36 | 47.36769 | -57.46386 | 37614 ft | 409 kts | 233° |
| 2026-05-08 18:37 | 47.34261 | -57.53918 | 37612 ft | 409 kts | 233° |
| 2026-05-08 18:37 | 47.31747 | -57.61446 | 37614 ft | 409 kts | 233° |
| 2026-05-08 18:38 | 47.29230 | -57.68959 | 37629 ft | 409 kts | 233° |
| 2026-05-08 18:38 | 47.26711 | -57.76448 | 37613 ft | 412 kts | 234° |
| 2026-05-08 18:39 | 47.25003 | -57.81516 | 37617 ft | 413 kts | 234° |
| 2026-05-08 18:39 | 47.22741 | -57.88220 | 37617 ft | 413 kts | 234° |
| 2026-05-08 18:40 | 47.20180 | -57.95791 | 37617 ft | 413 kts | 234° |
| 2026-05-08 18:40 | 47.17627 | -58.03314 | 37617 ft | 413 kts | 234° |
| 2026-05-08 18:41 | 47.15053 | -58.10870 | 37618 ft | 414 kts | 234° |
| 2026-05-08 18:41 | 47.12464 | -58.18453 | 37618 ft | 415 kts | 234° |
| 2026-05-08 18:42 | 47.09870 | -58.26031 | 37619 ft | 415 kts | 234° |
| 2026-05-08 18:42 | 47.07275 | -58.33590 | 37620 ft | 415 kts | 234° |
| 2026-05-08 18:43 | 47.04676 | -58.41137 | 37624 ft | 415 kts | 234° |
| 2026-05-08 18:43 | 47.02068 | -58.48686 | 37625 ft | 416 kts | 234° |
| 2026-05-08 18:44 | 46.99446 | -58.56253 | 37643 ft | 417 kts | 234° |
| 2026-05-08 18:44 | 46.96809 | -58.63845 | 37627 ft | 419 kts | 234° |
| 2026-05-08 18:45 | 46.94173 | -58.71410 | 37631 ft | 419 kts | 234° |
| 2026-05-08 18:45 | 46.91519 | -58.79011 | 37630 ft | 419 kts | 234° |
| 2026-05-08 18:46 | 46.88851 | -58.86620 | 37633 ft | 421 kts | 235° |
| 2026-05-08 18:46 | 46.86172 | -58.94242 | 37634 ft | 422 kts | 235° |
| 2026-05-08 18:47 | 46.83488 | -59.01862 | 37633 ft | 422 kts | 234° |
| 2026-05-08 18:47 | 46.80794 | -59.09485 | 37642 ft | 422 kts | 234° |
| 2026-05-08 18:48 | 46.78097 | -59.17091 | 37642 ft | 422 kts | 234° |
| 2026-05-08 18:48 | 46.75410 | -59.24648 | 37647 ft | 422 kts | 234° |
| 2026-05-08 18:49 | 46.72697 | -59.32257 | 37649 ft | 422 kts | 234° |
| 2026-05-08 18:49 | 46.69983 | -59.39845 | 37658 ft | 423 kts | 235° |
| 2026-05-08 18:50 | 46.67249 | -59.47465 | 37655 ft | 426 kts | 235° |
| 2026-05-08 18:50 | 46.64498 | -59.55114 | 37665 ft | 426 kts | 235° |
| 2026-05-08 18:51 | 46.61733 | -59.62780 | 37659 ft | 428 kts | 235° |
| 2026-05-08 18:51 | 46.58979 | -59.70395 | 37663 ft | 428 kts | 235° |
| 2026-05-08 18:52 | 46.56202 | -59.78055 | 37665 ft | 428 kts | 235° |
| 2026-05-08 18:52 | 46.53416 | -59.85712 | 37666 ft | 428 kts | 235° |
| 2026-05-08 18:53 | 46.50623 | -59.93367 | 37666 ft | 429 kts | 236° |
| 2026-05-08 18:53 | 46.47818 | -60.01032 | 37671 ft | 430 kts | 236° |
| 2026-05-08 18:54 | 46.45010 | -60.08686 | 37667 ft | 430 kts | 235° |
| 2026-05-08 18:54 | 46.42673 | -60.15038 | 37671 ft | 430 kts | 235° |
| 2026-05-08 18:55 | 46.37979 | -60.27753 | 37669 ft | 431 kts | 236° |
| 2026-05-08 18:56 | 46.35616 | -60.34128 | 37667 ft | 432 kts | 236° |
| 2026-05-08 18:56 | 46.32752 | -60.41840 | 37668 ft | 432 kts | 236° |
| 2026-05-08 18:57 | 46.29904 | -60.49485 | 37668 ft | 432 kts | 236° |
| 2026-05-08 18:57 | 46.27050 | -60.57128 | 37669 ft | 432 kts | 236° |
| 2026-05-08 18:58 | 46.24206 | -60.64717 | 37669 ft | 432 kts | 236° |
| 2026-05-08 18:58 | 46.21338 | -60.72350 | 37668 ft | 432 kts | 236° |
| 2026-05-08 18:59 | 46.18465 | -60.79980 | 37665 ft | 432 kts | 236° |
| 2026-05-08 18:59 | 46.15587 | -60.87598 | 37665 ft | 432 kts | 236° |
| 2026-05-08 19:00 | 46.12698 | -60.95222 | 37690 ft | 432 kts | 236° |
| 2026-05-08 19:00 | 46.09802 | -61.02847 | 37674 ft | 434 kts | 236° |
| 2026-05-08 19:01 | 46.06915 | -61.10423 | 37672 ft | 434 kts | 236° |
| 2026-05-08 19:01 | 46.04000 | -61.18054 | 37670 ft | 435 kts | 236° |
| 2026-05-08 19:02 | 46.01082 | -61.25673 | 37665 ft | 434 kts | 236° |
| 2026-05-08 19:02 | 45.98161 | -61.33279 | 37676 ft | 434 kts | 236° |
| 2026-05-08 19:03 | 45.95237 | -61.40870 | 37677 ft | 434 kts | 236° |
| 2026-05-08 19:03 | 45.92299 | -61.48476 | 37679 ft | 434 kts | 236° |
| 2026-05-08 19:04 | 45.89363 | -61.56057 | 37679 ft | 434 kts | 236° |
| 2026-05-08 19:04 | 45.86435 | -61.63594 | 37688 ft | 434 kts | 236° |
| 2026-05-08 19:05 | 45.83481 | -61.71177 | 37688 ft | 436 kts | 236° |
| 2026-05-08 19:05 | 45.80516 | -61.78768 | 37693 ft | 437 kts | 236° |
| 2026-05-08 19:06 | 45.77534 | -61.86381 | 37692 ft | 438 kts | 236° |
| 2026-05-08 19:06 | 45.74563 | -61.93946 | 37691 ft | 438 kts | 236° |
| 2026-05-08 19:07 | 45.71563 | -62.01565 | 37693 ft | 441 kts | 237° |
| 2026-05-08 19:07 | 45.68540 | -62.09215 | 37690 ft | 442 kts | 237° |
| 2026-05-08 19:08 | 45.65505 | -62.16877 | 37693 ft | 442 kts | 237° |
| 2026-05-08 19:08 | 45.62464 | -62.24532 | 37688 ft | 442 kts | 237° |
| 2026-05-08 19:09 | 45.59422 | -62.32168 | 37689 ft | 442 kts | 237° |
| 2026-05-08 19:09 | 45.56390 | -62.39759 | 37685 ft | 442 kts | 237° |
| 2026-05-08 19:10 | 45.53342 | -62.47371 | 37683 ft | 442 kts | 237° |
| 2026-05-08 19:10 | 45.50281 | -62.54991 | 37691 ft | 442 kts | 237° |
| 2026-05-08 19:11 | 45.47214 | -62.62607 | 37680 ft | 443 kts | 237° |
| 2026-05-08 19:11 | 45.44145 | -62.70207 | 37683 ft | 443 kts | 237° |
| 2026-05-08 19:12 | 45.41070 | -62.77801 | 37684 ft | 443 kts | 237° |
| 2026-05-08 19:12 | 45.38009 | -62.85341 | 37673 ft | 443 kts | 237° |
| 2026-05-08 19:13 | 45.34920 | -62.92928 | 37678 ft | 443 kts | 237° |
| 2026-05-08 19:13 | 45.31827 | -63.00505 | 37674 ft | 443 kts | 237° |
| 2026-05-08 19:14 | 45.28731 | -63.08071 | 37675 ft | 442 kts | 237° |
| 2026-05-08 19:14 | 45.25635 | -63.15613 | 37678 ft | 442 kts | 237° |
| 2026-05-08 19:15 | 45.22533 | -63.23153 | 37675 ft | 442 kts | 237° |
| 2026-05-08 19:15 | 45.19425 | -63.30685 | 37685 ft | 444 kts | 237° |
| 2026-05-08 19:16 | 45.16290 | -63.38262 | 37684 ft | 446 kts | 237° |
| 2026-05-08 19:16 | 45.13166 | -63.45792 | 37692 ft | 446 kts | 237° |
| 2026-05-08 19:17 | 45.10016 | -63.53369 | 37692 ft | 446 kts | 237° |
| 2026-05-08 19:17 | 45.06862 | -63.60933 | 37700 ft | 446 kts | 237° |
| 2026-05-08 19:18 | 45.03701 | -63.68493 | 37690 ft | 447 kts | 237° |
| 2026-05-08 19:18 | 45.00547 | -63.76017 | 37696 ft | 447 kts | 237° |
| 2026-05-08 19:19 | 44.97369 | -63.83577 | 37697 ft | 447 kts | 237° |
| 2026-05-08 19:19 | 44.94196 | -63.91107 | 37693 ft | 447 kts | 237° |
| 2026-05-08 19:20 | 44.91012 | -63.98639 | 37730 ft | 447 kts | 237° |
| 2026-05-08 19:20 | 44.87813 | -64.06190 | 37694 ft | 450 kts | 237° |
| 2026-05-08 19:21 | 44.84589 | -64.13778 | 37693 ft | 451 kts | 237° |
| 2026-05-08 19:21 | 44.81362 | -64.21355 | 37691 ft | 451 kts | 237° |
| 2026-05-08 19:22 | 44.78130 | -64.28921 | 37695 ft | 451 kts | 238° |
| 2026-05-08 19:22 | 44.74906 | -64.36450 | 37694 ft | 452 kts | 238° |
| 2026-05-08 19:23 | 44.71649 | -64.44033 | 37694 ft | 452 kts | 238° |
| 2026-05-08 19:23 | 44.68395 | -64.51591 | 37697 ft | 452 kts | 237° |
| 2026-05-08 19:24 | 44.65136 | -64.59139 | 37705 ft | 451 kts | 238° |
| 2026-05-08 19:24 | 44.61875 | -64.66670 | 37707 ft | 451 kts | 238° |
| 2026-05-08 19:25 | 44.58609 | -64.74196 | 37721 ft | 452 kts | 238° |
| 2026-05-08 19:25 | 44.55680 | -64.80925 | 37719 ft | 453 kts | 238° |
| 2026-05-08 19:26 | 44.52398 | -64.88447 | 37729 ft | 453 kts | 238° |
| 2026-05-08 19:26 | 44.49108 | -64.95967 | 37731 ft | 452 kts | 238° |
| 2026-05-08 19:27 | 44.45819 | -65.03466 | 37739 ft | 452 kts | 238° |
| 2026-05-08 19:27 | 44.42523 | -65.10962 | 37743 ft | 452 kts | 238° |
| 2026-05-08 19:28 | 44.39221 | -65.18451 | 37748 ft | 452 kts | 238° |
| 2026-05-08 19:28 | 44.35944 | -65.25863 | 37758 ft | 450 kts | 238° |
| 2026-05-08 19:29 | 44.32647 | -65.33302 | 37756 ft | 450 kts | 238° |
| 2026-05-08 19:29 | 44.29326 | -65.40775 | 37788 ft | 450 kts | 238° |
| 2026-05-08 19:30 | 44.26033 | -65.48168 | 37764 ft | 451 kts | 239° |
| 2026-05-08 19:30 | 44.22714 | -65.55598 | 37769 ft | 451 kts | 238° |
| 2026-05-08 19:31 | 44.19393 | -65.63017 | 37775 ft | 450 kts | 238° |
| 2026-05-08 19:31 | 44.16069 | -65.70422 | 37778 ft | 451 kts | 238° |
| 2026-05-08 19:32 | 44.12738 | -65.77824 | 37788 ft | 451 kts | 238° |
| 2026-05-08 19:32 | 44.09424 | -65.85170 | 37795 ft | 451 kts | 238° |
| 2026-05-08 19:33 | 44.06085 | -65.92552 | 37801 ft | 451 kts | 238° |
| 2026-05-08 19:33 | 44.02743 | -65.99921 | 37808 ft | 451 kts | 238° |
| 2026-05-08 19:34 | 43.99391 | -66.07293 | 37787 ft | 451 kts | 238° |
| 2026-05-08 19:34 | 43.96037 | -66.14650 | 37815 ft | 450 kts | 238° |
| 2026-05-08 19:35 | 43.92686 | -66.21986 | 37813 ft | 450 kts | 238° |
| 2026-05-08 19:35 | 43.89333 | -66.29306 | 37814 ft | 450 kts | 238° |
| 2026-05-08 19:36 | 43.85995 | -66.36575 | 37813 ft | 450 kts | 238° |
| 2026-05-08 19:36 | 43.82630 | -66.43885 | 37817 ft | 449 kts | 238° |
| 2026-05-08 19:37 | 43.79273 | -66.51160 | 37811 ft | 448 kts | 238° |
| 2026-05-08 19:37 | 43.75905 | -66.58441 | 37817 ft | 448 kts | 238° |
| 2026-05-08 19:38 | 43.72537 | -66.65703 | 37816 ft | 448 kts | 238° |
| 2026-05-08 19:38 | 43.69166 | -66.72952 | 37820 ft | 448 kts | 239° |
| 2026-05-08 19:39 | 43.65789 | -66.80197 | 37834 ft | 449 kts | 239° |
| 2026-05-08 19:39 | 43.62406 | -66.87435 | 37824 ft | 449 kts | 239° |
| 2026-05-08 19:40 | 43.59014 | -66.94676 | 37831 ft | 449 kts | 238° |
| 2026-05-08 19:40 | 43.55799 | -67.01980 | 37829 ft | 448 kts | 243° |
| 2026-05-08 19:41 | 43.52842 | -67.09545 | 37833 ft | 448 kts | 243° |
| 2026-05-08 19:41 | 43.49911 | -67.17112 | 37838 ft | 447 kts | 243° |
| 2026-05-08 19:42 | 43.46979 | -67.24675 | 37836 ft | 447 kts | 243° |
| 2026-05-08 19:42 | 43.44042 | -67.32236 | 37839 ft | 447 kts | 243° |
| 2026-05-08 19:43 | 43.41606 | -67.38493 | 37840 ft | 446 kts | 243° |
| 2026-05-08 19:43 | 43.38172 | -67.47291 | 37846 ft | 446 kts | 243° |
| 2026-05-08 19:44 | 43.35729 | -67.53533 | 37846 ft | 446 kts | 243° |
| 2026-05-08 19:44 | 43.32304 | -67.62261 | 37840 ft | 446 kts | 243° |
| 2026-05-08 19:45 | 43.29835 | -67.68534 | 37851 ft | 444 kts | 243° |
| 2026-05-08 19:45 | 43.26895 | -67.75990 | 37851 ft | 444 kts | 243° |
| 2026-05-08 19:46 | 43.23970 | -67.83388 | 37859 ft | 444 kts | 243° |
| 2026-05-08 19:46 | 43.19549 | -67.94530 | 37860 ft | 443 kts | 243° |
| 2026-05-08 19:47 | 43.16607 | -68.01922 | 37857 ft | 441 kts | 243° |
| 2026-05-08 19:47 | 43.13669 | -68.09286 | 37857 ft | 440 kts | 243° |
| 2026-05-08 19:48 | 43.10727 | -68.16639 | 37855 ft | 440 kts | 243° |
| 2026-05-08 19:48 | 43.07783 | -68.23979 | 37859 ft | 440 kts | 243° |
| 2026-05-08 19:49 | 43.04838 | -68.31305 | 37862 ft | 439 kts | 243° |
| 2026-05-08 19:49 | 43.01893 | -68.38610 | 37863 ft | 437 kts | 243° |
| 2026-05-08 19:50 | 42.98952 | -68.45888 | 37867 ft | 437 kts | 243° |
| 2026-05-08 19:50 | 42.96005 | -68.53163 | 37872 ft | 438 kts | 243° |
| 2026-05-08 19:51 | 42.93049 | -68.60441 | 37862 ft | 439 kts | 243° |
| 2026-05-08 19:51 | 42.90105 | -68.67671 | 37871 ft | 438 kts | 243° |
| 2026-05-08 19:52 | 42.87142 | -68.74930 | 37862 ft | 437 kts | 243° |
| 2026-05-08 19:52 | 42.84176 | -68.82179 | 37870 ft | 438 kts | 243° |
| 2026-05-08 19:53 | 42.81209 | -68.89411 | 37869 ft | 438 kts | 243° |
| 2026-05-08 19:53 | 42.78218 | -68.96686 | 37867 ft | 441 kts | 243° |
| 2026-05-08 19:54 | 42.75217 | -69.03964 | 37867 ft | 441 kts | 243° |
| 2026-05-08 19:54 | 42.72210 | -69.11238 | 37872 ft | 441 kts | 243° |
| 2026-05-08 19:55 | 42.69220 | -69.18456 | 37870 ft | 441 kts | 243° |
| 2026-05-08 19:55 | 42.66202 | -69.25721 | 37876 ft | 442 kts | 243° |
| 2026-05-08 19:56 | 42.63172 | -69.32996 | 37875 ft | 443 kts | 243° |
| 2026-05-08 19:56 | 42.60136 | -69.40270 | 37868 ft | 443 kts | 243° |
| 2026-05-08 19:57 | 42.57096 | -69.47534 | 37875 ft | 443 kts | 243° |
| 2026-05-08 19:57 | 42.54051 | -69.54792 | 37871 ft | 442 kts | 243° |
| 2026-05-08 19:58 | 42.51005 | -69.62034 | 37876 ft | 442 kts | 243° |
| 2026-05-08 19:58 | 42.47956 | -69.69265 | 37873 ft | 442 kts | 243° |
| 2026-05-08 19:59 | 42.44919 | -69.76451 | 37876 ft | 442 kts | 243° |
| 2026-05-08 19:59 | 42.41860 | -69.83670 | 37870 ft | 442 kts | 243° |
| 2026-05-08 20:00 | 42.38831 | -69.90800 | 37882 ft | 441 kts | 243° |
| 2026-05-08 20:00 | 42.35772 | -69.97984 | 37887 ft | 441 kts | 243° |
| 2026-05-08 20:01 | 42.32706 | -70.05169 | 37884 ft | 441 kts | 243° |
| 2026-05-08 20:01 | 42.29629 | -70.12361 | 37885 ft | 441 kts | 243° |
| 2026-05-08 20:02 | 42.26551 | -70.19535 | 37866 ft | 441 kts | 243° |
| 2026-05-08 20:02 | 42.23469 | -70.26703 | 37870 ft | 442 kts | 243° |
| 2026-05-08 20:03 | 42.20378 | -70.33876 | 37867 ft | 443 kts | 243° |
| 2026-05-08 20:03 | 42.17274 | -70.41060 | 37868 ft | 443 kts | 243° |
| 2026-05-08 20:04 | 42.14189 | -70.48183 | 37867 ft | 443 kts | 243° |
| 2026-05-08 20:04 | 42.11083 | -70.55338 | 37888 ft | 441 kts | 243° |
| 2026-05-08 20:05 | 42.07986 | -70.62453 | 37869 ft | 439 kts | 243° |
| 2026-05-08 20:05 | 42.04899 | -70.69531 | 37868 ft | 439 kts | 243° |
| 2026-05-08 20:06 | 42.01799 | -70.76621 | 37868 ft | 439 kts | 243° |
| 2026-05-08 20:06 | 41.98707 | -70.83675 | 37853 ft | 438 kts | 243° |
| 2026-05-08 20:07 | 41.95633 | -70.90673 | 37888 ft | 437 kts | 244° |
| 2026-05-08 20:07 | 41.92531 | -70.97658 | 37878 ft | 436 kts | 241° |
| 2026-05-08 20:08 | 41.88754 | -71.04109 | 37882 ft | 442 kts | 234° |
| 2026-05-08 20:08 | 41.84718 | -71.10116 | 37835 ft | 442 kts | 233° |
| 2026-05-08 20:09 | 41.80610 | -71.16159 | 37885 ft | 441 kts | 233° |
| 2026-05-08 20:09 | 41.78546 | -71.19187 | 37755 ft | 437 kts | 233° |
| 2026-05-08 20:09 | 41.76491 | -71.22199 | 37033 ft | 437 kts | 233° |
| 2026-05-08 20:10 | 41.74432 | -71.25218 | 36196 ft | 440 kts | 234° |
| 2026-05-08 20:10 | 41.72367 | -71.28241 | 35187 ft | 440 kts | 234° |
| 2026-05-08 20:10 | 41.70302 | -71.31257 | 33864 ft | 439 kts | 234° |
| 2026-05-08 20:10 | 41.68235 | -71.34274 | 31896 ft | 439 kts | 235° |
| 2026-05-08 20:11 | 41.66166 | -71.37295 | 30209 ft | 442 kts | 235° |
| 2026-05-08 20:11 | 41.64079 | -71.40339 | 29531 ft | 445 kts | 235° |
| 2026-05-08 20:11 | 41.61988 | -71.43382 | 29231 ft | 443 kts | 235° |
| 2026-05-08 20:11 | 41.59912 | -71.46397 | 28944 ft | 439 kts | 235° |
| 2026-05-08 20:12 | 41.58023 | -71.49139 | 28716 ft | 437 kts | 235° |
| 2026-05-08 20:12 | 41.55966 | -71.52123 | 28435 ft | 435 kts | 235° |
| 2026-05-08 20:12 | 41.53921 | -71.55088 | 28153 ft | 434 kts | 235° |
| 2026-05-08 20:12 | 41.51877 | -71.58050 | 27850 ft | 433 kts | 234° |
| 2026-05-08 20:13 | 41.49846 | -71.60986 | 27576 ft | 424 kts | 234° |
| 2026-05-08 20:13 | 41.47871 | -71.63828 | 27336 ft | 409 kts | 235° |
| 2026-05-08 20:13 | 41.45976 | -71.66555 | 27090 ft | 395 kts | 235° |
| 2026-05-08 20:13 | 41.44138 | -71.69202 | 26841 ft | 382 kts | 235° |
| 2026-05-08 20:14 | 41.42361 | -71.71762 | 26601 ft | 371 kts | 236° |
| 2026-05-08 20:14 | 41.40624 | -71.74267 | 26354 ft | 365 kts | 236° |
| 2026-05-08 20:14 | 41.38899 | -71.76760 | 26109 ft | 365 kts | 236° |
| 2026-05-08 20:14 | 41.37179 | -71.79243 | 25851 ft | 364 kts | 236° |
| 2026-05-08 20:15 | 41.35476 | -71.81688 | 25562 ft | 355 kts | 236° |
| 2026-05-08 20:15 | 41.33811 | -71.84077 | 25152 ft | 351 kts | 236° |
| 2026-05-08 20:15 | 41.32158 | -71.86448 | 24726 ft | 347 kts | 236° |
| 2026-05-08 20:15 | 41.30544 | -71.88765 | 24282 ft | 344 kts | 236° |
| 2026-05-08 20:16 | 41.28902 | -71.91090 | 23988 ft | 350 kts | 234° |
| 2026-05-08 20:16 | 41.27063 | -71.93308 | 23919 ft | 361 kts | 230° |
| 2026-05-08 20:16 | 41.25128 | -71.95458 | 23914 ft | 364 kts | 229° |
| 2026-05-08 20:16 | 41.23169 | -71.97600 | 23903 ft | 363 kts | 229° |
| 2026-05-08 20:17 | 41.21216 | -71.99730 | 23412 ft | 364 kts | 229° |
| 2026-05-08 20:17 | 41.19243 | -72.01893 | 22301 ft | 373 kts | 229° |
| 2026-05-08 20:17 | 41.17227 | -72.04104 | 21403 ft | 376 kts | 228° |
| 2026-05-08 20:17 | 41.15222 | -72.06289 | 20887 ft | 370 kts | 228° |
| 2026-05-08 20:18 | 41.13249 | -72.08434 | 20480 ft | 362 kts | 228° |
| 2026-05-08 20:18 | 41.11366 | -72.10576 | 20078 ft | 350 kts | 233° |
| 2026-05-08 20:18 | 41.09903 | -72.13024 | 19697 ft | 330 kts | 247° |
| 2026-05-08 20:18 | 41.08990 | -72.15739 | 19342 ft | 316 kts | 256° |
| 2026-05-08 20:19 | 41.08293 | -72.18474 | 18983 ft | 310 kts | 257° |
| 2026-05-08 20:19 | 41.07638 | -72.21174 | 18623 ft | 305 kts | 257° |
| 2026-05-08 20:19 | 41.06990 | -72.23841 | 18266 ft | 301 kts | 257° |
| 2026-05-08 20:19 | 41.06359 | -72.26423 | 17873 ft | 297 kts | 257° |
| 2026-05-08 20:20 | 41.05721 | -72.29012 | 17508 ft | 292 kts | 257° |
| 2026-05-08 20:20 | 41.05090 | -72.31560 | 17170 ft | 290 kts | 257° |
| 2026-05-08 20:20 | 41.04460 | -72.34105 | 16822 ft | 290 kts | 257° |
| 2026-05-08 20:20 | 41.03832 | -72.36634 | 16476 ft | 288 kts | 257° |
| 2026-05-08 20:21 | 41.03205 | -72.39153 | 16143 ft | 285 kts | 257° |
| 2026-05-08 20:21 | 41.02589 | -72.41615 | 15927 ft | 281 kts | 258° |
| 2026-05-08 20:21 | 41.01972 | -72.44095 | 15602 ft | 284 kts | 258° |
| 2026-05-08 20:21 | 41.01353 | -72.46578 | 15244 ft | 283 kts | 258° |
| 2026-05-08 20:22 | 41.00735 | -72.49043 | 14901 ft | 281 kts | 258° |
| 2026-05-08 20:22 | 41.00120 | -72.51497 | 14573 ft | 279 kts | 258° |
| 2026-05-08 20:22 | 40.99509 | -72.53930 | 14229 ft | 278 kts | 258° |
| 2026-05-08 20:22 | 40.99106 | -72.55538 | 14003 ft | 277 kts | 258° |
| 2026-05-08 20:23 | 40.98304 | -72.58730 | 13515 ft | 275 kts | 258° |
| 2026-05-08 20:23 | 40.97705 | -72.61108 | 13298 ft | 266 kts | 257° |
| 2026-05-08 20:23 | 40.97133 | -72.63366 | 13241 ft | 252 kts | 257° |
| 2026-05-08 20:23 | 40.96588 | -72.65516 | 13148 ft | 241 kts | 257° |
| 2026-05-08 20:24 | 40.96065 | -72.67586 | 13040 ft | 234 kts | 257° |
| 2026-05-08 20:24 | 40.95551 | -72.69631 | 12882 ft | 235 kts | 257° |
| 2026-05-08 20:24 | 40.95034 | -72.71688 | 12621 ft | 235 kts | 257° |
| 2026-05-08 20:24 | 40.94518 | -72.73738 | 12393 ft | 235 kts | 257° |
| 2026-05-08 20:25 | 40.94000 | -72.75787 | 12178 ft | 234 kts | 257° |
| 2026-05-08 20:25 | 40.93464 | -72.77847 | 12027 ft | 244 kts | 254° |
| 2026-05-08 20:25 | 40.92627 | -72.79886 | 11932 ft | 262 kts | 240° |
| 2026-05-08 20:25 | 40.91297 | -72.81597 | 11494 ft | 271 kts | 226° |
| 2026-05-08 20:26 | 40.89793 | -72.83055 | 11185 ft | 271 kts | 223° |
| 2026-05-08 20:26 | 40.88247 | -72.84498 | 10930 ft | 273 kts | 223° |
| 2026-05-08 20:26 | 40.86698 | -72.85950 | 10666 ft | 272 kts | 223° |
| 2026-05-08 20:26 | 40.85165 | -72.87398 | 10407 ft | 270 kts | 223° |
| 2026-05-08 20:27 | 40.83642 | -72.88845 | 10139 ft | 268 kts | 223° |
| 2026-05-08 20:27 | 40.82129 | -72.90287 | 9875 ft | 267 kts | 223° |
| 2026-05-08 20:27 | 40.80624 | -72.91725 | 9591 ft | 266 kts | 223° |
| 2026-05-08 20:27 | 40.79130 | -72.93153 | 9332 ft | 265 kts | 223° |
| 2026-05-08 20:28 | 40.77655 | -72.94562 | 9047 ft | 264 kts | 223° |
| 2026-05-08 20:28 | 40.76172 | -72.95979 | 8762 ft | 263 kts | 222° |
| 2026-05-08 20:28 | 40.74677 | -72.97407 | 8544 ft | 261 kts | 221° |
| 2026-05-08 20:28 | 40.73213 | -72.98805 | 8275 ft | 260 kts | 221° |
| 2026-05-08 20:29 | 40.71766 | -73.00186 | 8008 ft | 259 kts | 221° |
| 2026-05-08 20:29 | 40.70310 | -73.01574 | 7770 ft | 258 kts | 223° |
| 2026-05-08 20:29 | 40.69012 | -73.03152 | 7535 ft | 249 kts | 238° |
| 2026-05-08 20:29 | 40.68119 | -73.05080 | 7282 ft | 245 kts | 247° |
| 2026-05-08 20:30 | 40.67432 | -73.07122 | 6938 ft | 243 kts | 251° |
| 2026-05-08 20:30 | 40.66808 | -73.09181 | 6551 ft | 241 kts | 252° |
| 2026-05-08 20:30 | 40.66209 | -73.11236 | 6158 ft | 240 kts | 252° |
| 2026-05-08 20:30 | 40.65622 | -73.13289 | 5760 ft | 239 kts | 253° |
| 2026-05-08 20:31 | 40.65042 | -73.15345 | 5334 ft | 240 kts | 253° |
| 2026-05-08 20:31 | 40.64463 | -73.17412 | 4924 ft | 241 kts | 253° |
| 2026-05-08 20:31 | 40.63891 | -73.19452 | 4533 ft | 240 kts | 252° |
| 2026-05-08 20:31 | 40.63312 | -73.21512 | 4093 ft | 240 kts | 252° |
| 2026-05-08 20:32 | 40.62635 | -73.23526 | 3770 ft | 239 kts | 248° |
| 2026-05-08 20:32 | 40.61899 | -73.25501 | 3541 ft | 241 kts | 247° |
| 2026-05-08 20:32 | 40.61155 | -73.27482 | 3317 ft | 241 kts | 247° |
| 2026-05-08 20:32 | 40.60418 | -73.29465 | 3086 ft | 241 kts | 247° |
| 2026-05-08 20:33 | 40.59687 | -73.31453 | 3000 ft | 239 kts | 247° |
| 2026-05-08 20:33 | 40.58989 | -73.33383 | 3004 ft | 228 kts | 247° |
| 2026-05-08 20:33 | 40.58323 | -73.35205 | 3004 ft | 214 kts | 247° |
| 2026-05-08 20:33 | 40.57680 | -73.36949 | 3004 ft | 210 kts | 247° |
| 2026-05-08 20:34 | 40.57051 | -73.38675 | 3005 ft | 209 kts | 247° |
| 2026-05-08 20:34 | 40.56422 | -73.40378 | 3003 ft | 210 kts | 247° |
| 2026-05-08 20:34 | 40.55148 | -73.43817 | 3013 ft | 208 kts | 247° |
| 2026-05-08 20:35 | 40.54631 | -73.45569 | 3008 ft | 200 kts | 260° |
| 2026-05-08 20:35 | 40.54465 | -73.47320 | 3006 ft | 189 kts | 266° |
| 2026-05-08 20:35 | 40.54367 | -73.49028 | 3003 ft | 187 kts | 267° |
| 2026-05-08 20:35 | 40.54307 | -73.50175 | 3008 ft | 186 kts | 267° |
| 2026-05-08 20:36 | 40.54226 | -73.52428 | 3005 ft | 187 kts | 274° |
| 2026-05-08 20:36 | 40.54407 | -73.53558 | 3003 ft | 188 kts | 287° |
| 2026-05-08 20:36 | 40.54947 | -73.55123 | 2996 ft | 189 kts | 296° |
| 2026-05-08 20:36 | 40.55612 | -73.56616 | 3000 ft | 189 kts | 298° |
| 2026-05-08 20:37 | 40.56293 | -73.58102 | 2998 ft | 190 kts | 298° |
| 2026-05-08 20:37 | 40.56960 | -73.59569 | 2952 ft | 186 kts | 298° |
| 2026-05-08 20:37 | 40.57604 | -73.61004 | 2738 ft | 180 kts | 298° |
| 2026-05-08 20:37 | 40.58243 | -73.62415 | 2466 ft | 179 kts | 298° |
| 2026-05-08 20:38 | 40.58876 | -73.63805 | 2209 ft | 175 kts | 298° |
| 2026-05-08 20:38 | 40.59489 | -73.65156 | 1976 ft | 169 kts | 297° |
| 2026-05-08 20:38 | 40.60088 | -73.66477 | 1750 ft | 168 kts | 297° |
| 2026-05-08 20:38 | 40.60684 | -73.67790 | 1505 ft | 165 kts | 297° |
| 2026-05-08 20:39 | 40.61254 | -73.69044 | 1300 ft | 153 kts | 297° |
| 2026-05-08 20:39 | 40.61772 | -73.70184 | 1107 ft | 135 kts | 296° |
| 2026-05-08 20:39 | 40.62227 | -73.71190 | 930 ft | 122 kts | 297° |
| 2026-05-08 20:39 | 40.62655 | -73.72137 | 755 ft | 120 kts | 297° |
| 2026-05-08 20:40 | 40.63088 | -73.73089 | 582 ft | 122 kts | 299° |
| 2026-05-08 20:40 | 40.63519 | -73.74034 | 392 ft | 122 kts | 300° |
| 2026-05-08 20:40 | 40.63954 | -73.74994 | 244 ft | 123 kts | 301° |
| 2026-05-08 20:40 | 40.64391 | -73.75965 | 92 ft | 123 kts | 299° |
| 2026-05-08 20:41 | 40.64804 | -73.76876 | 27 ft | 106 kts | 303° |
| 2026-05-08 20:41 | 40.65085 | -73.77499 | 29 ft | 51 kts | 301° |
| 2026-05-08 20:41 | 40.65219 | -73.77795 | 27 ft | 33 kts | 300° |
| 2026-05-08 20:41 | 40.65228 | -73.77896 | 26 ft | 6 kts | 246° |
| 2026-05-08 20:42 | 40.65203 | -73.77928 | 25 ft | 5 kts | 214° |
| 2026-05-08 20:42 | 40.65180 | -73.77949 | 29 ft | 0 kts | 218° |
| 2026-05-08 20:42 | 40.65178 | -73.77952 | 27 ft | 3 kts | 229° |
| 2026-05-08 20:42 | 40.65179 | -73.77987 | 29 ft | 6 kts | 287° |
| 2026-05-08 20:43 | 40.65211 | -73.78059 | 27 ft | 12 kts | 301° |
| 2026-05-08 20:43 | 40.65260 | -73.78167 | 30 ft | 15 kts | 301° |
| 2026-05-08 20:43 | 40.65314 | -73.78285 | 30 ft | 16 kts | 301° |
| 2026-05-08 20:43 | 40.65357 | -73.78421 | 27 ft | 16 kts | 273° |
| 2026-05-08 20:44 | 40.65319 | -73.78563 | 28 ft | 17 kts | 242° |
| 2026-05-08 20:44 | 40.65259 | -73.78706 | 27 ft | 19 kts | 241° |
| 2026-05-08 20:44 | 40.65218 | -73.78870 | 24 ft | 19 kts | 266° |
| 2026-05-08 20:44 | 40.65247 | -73.79037 | 27 ft | 19 kts | 287° |
| 2026-05-08 20:45 | 40.65286 | -73.79214 | 27 ft | 20 kts | 278° |
| 2026-05-08 20:45 | 40.65260 | -73.79392 | 25 ft | 20 kts | 243° |
| 2026-05-08 20:45 | 40.65190 | -73.79556 | 26 ft | 21 kts | 240° |
| 2026-05-08 20:45 | 40.65112 | -73.79721 | 28 ft | 21 kts | 226° |
| 2026-05-08 20:46 | 40.64978 | -73.79802 | 27 ft | 22 kts | 185° |
| 2026-05-08 20:46 | 40.64818 | -73.79804 | 26 ft | 24 kts | 174° |
| 2026-05-08 20:46 | 40.64666 | -73.79710 | 28 ft | 25 kts | 143° |
| 2026-05-08 20:46 | 40.64512 | -73.79602 | 28 ft | 26 kts | 171° |
| 2026-05-08 20:47 | 40.64326 | -73.79595 | 28 ft | 27 kts | 182° |
| 2026-05-08 20:47 | 40.64163 | -73.79606 | 27 ft | 23 kts | 172° |
| 2026-05-08 20:47 | 40.64052 | -73.79460 | 26 ft | 24 kts | 119° |
| 2026-05-08 20:47 | 40.63986 | -73.79305 | 29 ft | 13 kts | 110° |
| 2026-05-08 20:48 | 40.64019 | -73.79206 | 28 ft | 13 kts | 45° |
| 2026-05-08 20:48 | 40.64080 | -73.79183 | 28 ft | 8 kts | 337° |
| 2026-05-08 20:48 | 40.64114 | -73.79210 | 30 ft | 0 kts | 328° |
| 2026-05-08 20:48 | 40.64115 | -73.79211 | 29 ft | 0 kts | 327° |